createdAt,value
2022-08-09T00:01:54.575Z,0.88
2022-08-09T00:04:35.003Z,1.02
2022-08-09T00:07:10.727Z,1.08
2022-08-09T00:09:41.249Z,0.57
2022-08-09T00:12:22.595Z,0.90
2022-08-09T00:15:06.536Z,0.82
2022-08-09T00:18:07.532Z,0.70
2022-08-09T00:20:27.408Z,0.60
2022-08-09T00:23:07.828Z,1.17
2022-08-09T00:25:54.308Z,0.88
2022-08-09T00:28:27.168Z,0.55
2022-08-09T00:30:58.463Z,0.77
2022-08-09T00:33:32.787Z,0.90
2022-08-09T00:36:19.549Z,1.27
2022-08-09T00:38:52.215Z,0.70
2022-08-09T00:44:11.018Z,0.63
2022-08-09T00:44:25.198Z,0.82
2022-08-09T00:49:37.155Z,0.68
2022-08-09T00:52:17.482Z,0.80
2022-08-09T00:54:53.455Z,0.88
2022-08-09T00:57:33.862Z,0.73
2022-08-09T01:00:22.012Z,0.90
2022-08-09T01:02:57.186Z,0.93
2022-08-09T01:05:53.575Z,1.00
2022-08-09T01:08:36.938Z,0.70
2022-08-09T01:11:16.658Z,1.20
2022-08-09T01:13:59.322Z,1.17
2022-08-09T01:16:35.899Z,1.23
2022-08-09T01:19:16.878Z,1.00
2022-08-09T01:21:51.258Z,0.90
2022-08-09T01:24:26.915Z,1.05
2022-08-09T01:27:02.225Z,1.23
2022-08-09T01:29:55.242Z,1.13
2022-08-09T01:32:33.799Z,0.63
2022-08-09T01:35:28.213Z,1.17
2022-08-09T01:38:09.901Z,1.00
2022-08-09T01:40:43.148Z,1.10
2022-08-09T01:43:16.506Z,1.33
2022-08-09T01:45:49.218Z,1.30
2022-08-09T01:48:29.432Z,0.85
2022-08-09T01:51:02.665Z,0.93
2022-08-09T01:53:41.638Z,0.90
2022-08-09T01:56:13.157Z,0.80
2022-08-09T01:58:49.148Z,0.77
2022-08-09T02:01:20.319Z,0.60
2022-08-09T02:04:02.941Z,0.90
2022-08-09T02:06:58.415Z,1.08
2022-08-09T02:09:41.939Z,1.08
2022-08-09T02:12:21.220Z,1.10
2022-08-09T02:14:56.157Z,1.27
2022-08-09T02:17:59.309Z,0.80
2022-08-09T02:20:26.428Z,1.15
2022-08-09T02:23:07.895Z,0.95
2022-08-09T02:25:42.544Z,0.98
2022-08-09T02:28:21.096Z,0.73
2022-08-09T02:31:01.964Z,0.98
2022-08-09T02:33:58.304Z,1.10
2022-08-09T02:36:32.588Z,1.25
2022-08-09T02:39:05.009Z,0.85
2022-08-09T02:41:39.917Z,1.38
2022-08-09T02:44:29.481Z,1.10
2022-08-09T02:47:08.001Z,1.38
2022-08-09T02:49:42.590Z,0.82
2022-08-09T02:52:15.516Z,0.98
2022-08-09T02:54:54.566Z,0.85
2022-08-09T02:57:25.877Z,1.10
2022-08-09T03:00:21.058Z,1.30
2022-08-09T03:03:00.245Z,0.85
2022-08-09T03:05:34.451Z,0.88
2022-08-09T03:08:06.641Z,0.93
2022-08-09T03:10:38.633Z,1.10
2022-08-09T03:13:10.056Z,0.93
2022-08-09T03:16:06.089Z,1.00
2022-08-09T03:18:35.498Z,0.98
2022-08-09T03:21:10.685Z,1.10
2022-08-09T03:23:44.121Z,0.88
2022-08-09T03:26:34.804Z,1.20
2022-08-09T03:29:22.755Z,0.90
2022-08-09T03:31:59.797Z,1.13
2022-08-09T03:34:33.533Z,1.10
2022-08-09T03:37:54.443Z,1.00
2022-08-09T03:39:56.620Z,1.05
2022-08-09T03:42:30.675Z,1.00
2022-08-09T03:47:31.133Z,0.75
2022-08-09T03:50:14.313Z,1.17
2022-08-09T03:52:58.999Z,0.85
2022-08-09T03:55:30.239Z,0.93
2022-08-09T03:58:16.187Z,1.00
2022-08-09T04:00:47.822Z,1.00
2022-08-09T04:03:24.670Z,0.85
2022-08-09T04:06:09.384Z,0.63
2022-08-09T04:08:42.128Z,1.00
2022-08-09T04:11:16.705Z,0.88
2022-08-09T04:14:37.787Z,0.75
2022-08-09T04:16:37.151Z,1.08
2022-08-09T04:19:11.134Z,1.00
2022-08-09T04:22:00.196Z,1.33
2022-08-09T04:24:31.917Z,1.02
2022-08-09T04:27:03.282Z,0.77
2022-08-09T04:29:33.570Z,0.82
2022-08-09T04:32:03.793Z,1.08
2022-08-09T04:34:36.021Z,1.02
2022-08-09T04:37:09.029Z,0.95
2022-08-09T04:39:40.833Z,1.00
2022-08-09T04:42:11.179Z,1.33
2022-08-09T04:44:49.079Z,1.10
2022-08-09T04:47:19.779Z,0.70
2022-08-09T04:49:54.482Z,1.10
2022-08-09T04:52:30.399Z,1.17
2022-08-09T04:55:02.556Z,0.73
2022-08-09T04:57:59.091Z,0.77
2022-08-09T05:00:31.887Z,0.82
2022-08-09T05:03:12.911Z,1.33
2022-08-09T05:06:06.831Z,0.82
2022-08-09T05:08:43.916Z,0.80
2022-08-09T05:11:18.229Z,0.98
2022-08-09T05:13:51.284Z,0.70
2022-08-09T05:16:28.555Z,0.90
2022-08-09T05:19:02.759Z,0.77
2022-08-09T05:21:46.767Z,0.90
2022-08-09T05:24:20.024Z,0.90
2022-08-09T05:26:54.557Z,0.73
2022-08-09T05:29:31.529Z,1.10
2022-08-09T05:32:05.825Z,0.90
2022-08-09T05:34:36.013Z,1.40
2022-08-09T05:37:11.511Z,0.80
2022-08-09T05:39:44.854Z,0.73
2022-08-09T05:44:52.595Z,0.77
2022-08-09T05:47:23.339Z,0.52
2022-08-09T05:50:26.927Z,0.80
2022-08-09T05:52:53.799Z,0.95
2022-08-09T05:55:27.766Z,0.70
2022-08-09T05:58:04.073Z,0.73
2022-08-09T06:00:35.710Z,0.88
2022-08-09T06:03:10.756Z,0.60
2022-08-09T06:05:56.873Z,0.85
2022-08-09T06:08:31.740Z,0.57
2022-08-09T06:11:16.330Z,0.80
2022-08-09T06:13:47.668Z,0.68
2022-08-09T06:16:18.129Z,0.50
2022-08-09T06:18:48.325Z,0.73
2022-08-09T06:21:19.074Z,0.73
2022-08-09T06:23:57.302Z,0.40
2022-08-09T06:26:34.375Z,0.93
2022-08-09T06:29:05.601Z,0.63
2022-08-09T06:31:39.765Z,0.70
2022-08-09T06:34:29.877Z,0.65
2022-08-09T06:37:00.909Z,0.73
2022-08-09T06:39:48.232Z,0.40
2022-08-09T06:42:24.898Z,0.40
2022-08-09T06:44:59.363Z,0.43
2022-08-09T06:47:39.740Z,0.32
2022-08-09T06:50:16.809Z,0.50
2022-08-09T06:52:49.946Z,0.60
2022-08-09T06:55:23.234Z,0.63
2022-08-09T06:58:02.548Z,0.50
2022-08-09T07:00:49.735Z,0.40
2022-08-09T07:03:28.482Z,0.60
2022-08-09T07:06:04.727Z,0.40
2022-08-09T07:08:37.435Z,0.55
2022-08-09T07:11:12.796Z,0.20
2022-08-09T07:14:04.448Z,0.70
2022-08-09T07:16:41.057Z,0.50
2022-08-09T07:19:18.639Z,0.35
2022-08-09T07:21:57.010Z,0.52
2022-08-09T07:24:32.467Z,0.32
2022-08-09T07:27:23.934Z,0.43
2022-08-09T07:30:03.133Z,1.05
2022-08-09T07:32:34.844Z,0.40
2022-08-09T07:35:10.346Z,0.40
2022-08-09T07:37:44.579Z,0.20
2022-08-09T07:40:18.616Z,0.32
2022-08-09T07:42:52.458Z,0.50
2022-08-09T07:45:39.828Z,0.43
2022-08-09T07:48:22.549Z,0.20
2022-08-09T07:51:10.171Z,2.40
2022-08-09T07:54:05.190Z,0.65
2022-08-09T07:56:38.989Z,0.63
2022-08-09T07:59:25.174Z,0.65
2022-08-09T08:01:58.567Z,0.52
2022-08-09T08:04:32.108Z,0.30
2022-08-09T08:07:15.081Z,0.43
2022-08-09T08:10:08.219Z,0.40
2022-08-09T08:12:45.133Z,0.38
2022-08-09T08:15:18.518Z,0.30
2022-08-09T08:17:58.175Z,0.30
2022-08-09T08:20:32.548Z,0.30
2022-08-09T08:23:15.740Z,0.32
2022-08-09T08:25:50.302Z,0.30
2022-08-09T08:28:26.191Z,0.55
2022-08-09T08:31:14.142Z,3.45
2022-08-09T08:33:52.670Z,0.65
2022-08-09T08:36:29.469Z,0.55
2022-08-09T08:39:00.857Z,0.57
2022-08-09T08:41:51.112Z,0.57
2022-08-09T08:44:27.191Z,0.30
2022-08-09T08:47:04.651Z,0.55
2022-08-09T08:49:48.686Z,0.80
2022-08-09T08:52:52.941Z,0.77
2022-08-09T08:55:15.193Z,0.70
2022-08-09T08:57:56.326Z,0.75
2022-08-09T09:00:30.157Z,0.80
2022-08-09T09:03:08.835Z,0.80
2022-08-09T09:05:59.715Z,1.25
2022-08-09T09:08:40.343Z,0.80
2022-08-09T09:11:17.524Z,0.82
2022-08-09T09:13:57.164Z,0.65
2022-08-09T09:16:32.293Z,0.70
2022-08-09T09:22:13.841Z,0.40
2022-08-09T09:24:47.591Z,0.70
2022-08-09T09:28:06.804Z,0.57
2022-08-09T09:30:38.065Z,0.90
2022-08-09T09:33:16.439Z,0.60
2022-08-09T09:36:02.001Z,0.50
2022-08-09T09:38:50.570Z,0.75
2022-08-09T09:41:48.679Z,0.60
2022-08-09T09:44:27.984Z,0.60
2022-08-09T09:47:11.470Z,0.85
2022-08-09T09:50:14.354Z,0.50
2022-08-09T09:52:36.644Z,0.77
2022-08-09T09:55:24.267Z,0.70
2022-08-09T09:58:18.251Z,1.05
2022-08-09T10:00:54.568Z,0.70
2022-08-09T10:03:57.545Z,0.52
2022-08-09T10:09:12.019Z,0.75
2022-08-09T10:12:14.436Z,0.47
2022-08-09T10:14:52.034Z,0.70
2022-08-09T10:17:39.637Z,0.80
2022-08-09T10:20:32.307Z,0.88
2022-08-09T10:23:19.892Z,0.70
2022-08-09T10:26:04.450Z,0.57
2022-08-09T10:28:48.634Z,0.80
2022-08-09T10:34:19.071Z,0.65
2022-08-09T10:37:01.546Z,0.55
2022-08-09T10:39:40.959Z,0.60
2022-08-09T10:42:19.936Z,2.50
2022-08-09T10:45:00.142Z,0.95
2022-08-09T10:48:14.505Z,0.60
2022-08-09T10:51:00.109Z,0.77
2022-08-09T10:53:46.800Z,0.60
2022-08-09T10:56:26.024Z,0.43
2022-08-09T10:58:57.312Z,0.63
2022-08-09T11:03:15.493Z,0.73
2022-08-09T11:04:35.662Z,0.82
2022-08-09T11:07:56.908Z,0.80
2022-08-09T11:11:00.525Z,0.45
2022-08-09T11:13:53.791Z,0.85
2022-08-09T11:16:41.043Z,0.57
2022-08-09T11:19:14.065Z,0.70
2022-08-09T11:22:16.615Z,0.47
2022-08-09T11:25:08.836Z,0.50
2022-08-09T11:28:04.750Z,0.57
2022-08-09T11:30:37.960Z,0.68
2022-08-09T11:33:13.119Z,0.68
2022-08-09T11:35:52.061Z,0.68
2022-08-09T11:38:32.292Z,0.52
2022-08-09T11:41:06.326Z,0.32
2022-08-09T11:43:45.620Z,0.65
2022-08-09T11:46:26.461Z,0.40
2022-08-09T11:49:05.298Z,0.57
2022-08-09T11:53:00.943Z,0.35
2022-08-09T11:55:34.977Z,0.50
2022-08-09T11:58:50.023Z,0.47
2022-08-09T12:02:01.149Z,0.40
2022-08-09T12:04:20.916Z,0.47
2022-08-09T12:07:01.502Z,0.75
2022-08-09T12:09:35.462Z,0.50
2022-08-09T12:12:12.331Z,1.40
2022-08-09T12:15:03.755Z,0.30
2022-08-09T12:17:44.306Z,0.47
2022-08-09T12:20:21.370Z,0.50
2022-08-09T12:22:56.626Z,0.63
2022-08-09T12:25:36.636Z,0.68
2022-08-09T12:29:10.807Z,0.30
2022-08-09T12:31:11.195Z,0.32
2022-08-09T12:34:01.063Z,0.47
2022-08-09T12:36:33.959Z,0.52
2022-08-09T12:39:17.363Z,0.32
2022-08-09T12:41:49.999Z,0.47
2022-08-09T12:44:24.561Z,0.50
2022-08-09T12:46:54.898Z,0.82
2022-08-09T12:49:25.924Z,0.40
2022-08-09T12:52:02.284Z,0.50
2022-08-09T12:56:12.616Z,0.38
2022-08-09T12:57:42.969Z,0.30
2022-08-09T13:00:25.478Z,0.30
2022-08-09T13:02:58.056Z,0.47
2022-08-09T13:05:50.687Z,0.30
2022-08-09T13:08:39.731Z,0.40
2022-08-09T13:11:24.373Z,0.65
2022-08-09T13:14:42.653Z,0.40
2022-08-09T13:16:53.789Z,0.25
2022-08-09T13:20:08.740Z,0.50
2022-08-09T13:22:37.480Z,0.57
2022-08-09T13:25:12.203Z,0.47
2022-08-09T13:27:54.649Z,0.35
2022-08-09T13:30:51.116Z,0.30
2022-08-09T13:33:52.861Z,0.40
2022-08-09T13:36:39.107Z,0.30
2022-08-09T13:41:46.792Z,0.32
2022-08-09T13:42:01.422Z,0.38
2022-08-09T13:44:35.916Z,0.60
2022-08-09T13:47:29.011Z,0.50
2022-08-09T13:50:00.762Z,0.50
2022-08-09T13:52:33.845Z,0.57
2022-08-09T13:55:07.276Z,0.43
2022-08-09T13:57:40.635Z,0.50
2022-08-09T14:00:17.023Z,0.55
2022-08-09T14:03:57.771Z,0.63
2022-08-09T14:05:59.362Z,0.35
2022-08-09T14:08:29.812Z,0.60
2022-08-09T14:11:00.485Z,0.70
2022-08-09T14:14:23.936Z,0.70
2022-08-09T14:16:28.640Z,0.60
2022-08-09T14:18:59.550Z,0.70
2022-08-09T14:21:32.043Z,0.77
2022-08-09T14:24:10.347Z,0.45
2022-08-09T14:26:51.728Z,0.47
2022-08-09T14:30:18.661Z,0.60
2022-08-09T14:32:16.328Z,0.50
2022-08-09T14:34:56.824Z,0.50
2022-08-09T14:37:28.271Z,0.70
2022-08-09T14:39:58.982Z,0.68
2022-08-09T14:42:32.349Z,0.65
2022-08-09T14:46:40.337Z,0.73
2022-08-09T14:47:59.300Z,0.40
2022-08-09T14:50:32.485Z,0.50
2022-08-09T14:53:03.253Z,0.77
2022-08-09T14:55:36.765Z,0.50
2022-08-09T14:58:12.258Z,0.70
2022-08-09T15:00:48.402Z,0.35
2022-08-09T15:03:24.049Z,0.40
2022-08-09T15:05:54.994Z,0.90
2022-08-09T15:08:30.499Z,0.40
2022-08-09T15:11:04.834Z,0.60
2022-08-09T15:13:48.016Z,0.70
2022-08-09T15:16:30.649Z,0.52
2022-08-09T15:19:15.893Z,0.50
2022-08-09T15:22:00.929Z,0.60
2022-08-09T15:24:32.674Z,0.80
2022-08-09T15:27:02.676Z,0.80
2022-08-09T15:30:55.711Z,0.50
2022-08-09T15:32:39.130Z,0.55
2022-08-09T15:35:40.150Z,0.65
2022-08-09T15:38:10.997Z,0.70
2022-08-09T15:40:44.237Z,0.57
2022-08-09T15:43:14.821Z,0.50
2022-08-09T15:45:52.018Z,0.60
2022-08-09T15:48:36.079Z,0.55
2022-08-09T15:51:11.394Z,0.50
2022-08-09T15:54:04.443Z,0.50
2022-08-09T15:56:49.303Z,0.55
2022-08-09T15:59:19.730Z,0.80
2022-08-09T16:01:50.015Z,0.70
2022-08-09T16:04:23.062Z,0.38
2022-08-09T16:06:55.934Z,0.50
2022-08-09T16:09:51.524Z,0.60
2022-08-09T16:12:16.273Z,0.60
2022-08-09T16:14:46.387Z,0.35
2022-08-09T16:17:17.186Z,0.32
2022-08-09T16:19:49.015Z,0.80
2022-08-09T16:22:36.430Z,0.75
2022-08-09T16:25:15.841Z,0.65
2022-08-09T16:27:47.874Z,1.15
2022-08-09T16:30:25.989Z,0.93
2022-08-09T16:33:11.592Z,0.73
2022-08-09T16:35:55.692Z,0.90
2022-08-09T16:38:31.805Z,0.70
2022-08-09T16:41:03.923Z,0.80
2022-08-09T16:43:34.681Z,0.45
2022-08-09T16:46:12.407Z,1.27
2022-08-09T16:48:55.958Z,1.23
2022-08-09T16:51:29.793Z,1.50
2022-08-09T16:54:28.299Z,1.25
2022-08-09T16:56:52.982Z,1.23
2022-08-09T16:59:23.202Z,1.27
2022-08-09T17:01:53.952Z,0.90
2022-08-09T17:04:28.611Z,1.30
2022-08-09T17:08:45.076Z,1.10
2022-08-09T17:09:52.049Z,1.17
2022-08-09T17:12:32.173Z,1.70
2022-08-09T17:15:31.492Z,1.65
2022-08-09T17:17:52.588Z,1.42
2022-08-09T17:20:37.652Z,1.58
2022-08-09T17:23:14.796Z,1.83
2022-08-09T17:25:53.053Z,1.47
2022-08-09T17:28:23.539Z,2.00
2022-08-09T17:30:53.570Z,1.40
2022-08-09T17:33:23.868Z,1.70
2022-08-09T17:35:54.216Z,1.80
2022-08-09T17:38:32.061Z,1.63
2022-08-09T17:41:07.105Z,2.10
2022-08-09T17:43:38.018Z,2.50
2022-08-09T17:46:09.988Z,2.30
2022-08-09T17:48:52.276Z,2.72
2022-08-09T17:51:23.371Z,2.97
2022-08-09T17:53:55.814Z,3.40
2022-08-09T17:56:32.581Z,3.13
2022-08-09T17:59:11.859Z,3.25
2022-08-09T18:02:06.963Z,3.58
2022-08-09T18:04:36.795Z,2.70
2022-08-09T18:07:10.307Z,3.35
2022-08-09T18:10:04.285Z,3.28
2022-08-09T18:12:40.468Z,3.45
2022-08-09T18:16:08.052Z,3.20
2022-08-09T18:18:25.877Z,4.10
2022-08-09T18:21:19.077Z,3.47
2022-08-09T18:24:10.300Z,3.47
2022-08-09T18:26:46.805Z,3.28
2022-08-09T18:30:40.708Z,3.17
2022-08-09T18:32:12.133Z,3.08
2022-08-09T18:34:43.557Z,2.95
2022-08-09T18:37:48.913Z,2.85
2022-08-09T18:40:05.183Z,2.03
2022-08-09T18:42:36.400Z,2.88
2022-08-09T18:45:21.513Z,2.35
2022-08-09T18:48:01.793Z,2.08
2022-08-09T18:50:33.667Z,2.60
2022-08-09T18:53:04.661Z,2.30
2022-08-09T18:55:56.500Z,2.63
2022-08-09T18:58:33.161Z,2.03
2022-08-09T19:01:05.886Z,1.90
2022-08-09T19:03:57.737Z,1.98
2022-08-09T19:06:26.080Z,1.73
2022-08-09T19:09:02.489Z,1.90
2022-08-09T19:11:38.022Z,1.73
2022-08-09T19:14:09.393Z,1.60
2022-08-09T19:16:42.649Z,1.38
2022-08-09T19:19:25.274Z,1.23
2022-08-09T19:22:06.871Z,1.63
2022-08-09T19:25:07.643Z,1.25
2022-08-09T19:27:31.356Z,1.10
2022-08-09T19:30:25.247Z,1.13
2022-08-09T19:32:55.381Z,1.27
2022-08-09T19:35:26.768Z,0.90
2022-08-09T19:37:57.659Z,1.15
2022-08-09T19:40:34.188Z,0.80
2022-08-09T19:43:10.365Z,0.88
2022-08-09T19:45:47.299Z,1.00
2022-08-09T19:49:00.535Z,0.85
2022-08-09T19:51:11.569Z,1.65
2022-08-09T19:53:45.474Z,0.80
2022-08-09T19:56:28.830Z,1.00
2022-08-09T19:59:39.676Z,1.13
2022-08-09T20:02:05.269Z,0.70
2022-08-09T20:04:47.924Z,0.68
2022-08-09T20:07:23.109Z,1.38
2022-08-09T20:09:53.088Z,0.73
2022-08-09T20:12:41.393Z,0.68
2022-08-09T20:16:35.774Z,1.00
2022-08-09T20:18:03.711Z,0.85
2022-08-09T20:20:41.008Z,0.85
2022-08-09T20:23:11.477Z,0.95
2022-08-09T20:25:51.677Z,1.00
2022-08-09T20:28:34.462Z,1.05
2022-08-09T20:31:14.193Z,0.55
2022-08-09T20:33:45.729Z,0.95
2022-08-09T20:36:20.211Z,1.02
2022-08-09T20:39:29.029Z,0.70
2022-08-09T20:41:40.709Z,0.60
2022-08-09T20:44:11.197Z,1.02
2022-08-09T20:46:44.458Z,0.77
2022-08-09T20:49:16.738Z,0.77
2022-08-09T20:51:50.801Z,0.90
2022-08-09T20:54:21.985Z,0.70
2022-08-09T21:00:19.211Z,1.02
2022-08-09T21:02:18.675Z,0.70
2022-08-09T21:05:53.960Z,0.80
2022-08-09T21:07:44.525Z,0.55
2022-08-09T21:10:14.838Z,0.65
2022-08-09T21:15:34.727Z,0.98
2022-08-09T21:18:11.479Z,0.82
2022-08-09T21:20:54.539Z,0.68
2022-08-09T21:23:47.786Z,0.70
2022-08-09T21:26:18.808Z,0.70
2022-08-09T21:28:55.476Z,0.90
2022-08-09T21:31:48.080Z,1.17
2022-08-09T21:34:28.453Z,0.70
2022-08-09T21:36:59.285Z,1.33
2022-08-09T21:39:42.274Z,0.85
2022-08-09T21:42:13.084Z,0.50
2022-08-09T21:44:43.659Z,0.65
2022-08-09T21:47:17.428Z,0.77
2022-08-09T21:49:49.667Z,0.77
2022-08-09T21:52:22.340Z,0.65
2022-08-09T21:55:03.330Z,0.68
2022-08-09T21:57:39.190Z,0.90
2022-08-09T22:00:32.092Z,0.70
2022-08-09T22:03:05.839Z,0.50
2022-08-09T22:05:42.214Z,0.80
2022-08-09T22:08:15.073Z,0.90
2022-08-09T22:11:50.259Z,1.08
2022-08-09T22:13:43.216Z,0.80
2022-08-09T22:16:13.876Z,1.02
2022-08-09T22:18:54.047Z,0.80
2022-08-09T22:21:27.400Z,0.93
2022-08-09T22:24:17.018Z,0.70
2022-08-09T22:26:53.471Z,1.10
2022-08-09T22:29:32.379Z,0.90
2022-08-09T22:32:30.187Z,0.80
2022-08-09T22:35:06.249Z,0.60
2022-08-09T22:38:06.878Z,0.90
2022-08-09T22:40:38.072Z,0.55
2022-08-09T22:43:17.010Z,0.75
2022-08-09T22:48:15.663Z,0.77
2022-08-09T22:48:51.909Z,0.65
2022-08-09T22:51:24.231Z,0.47
2022-08-09T22:54:02.269Z,0.52
2022-08-09T22:56:34.511Z,0.40
2022-08-09T22:59:58.469Z,0.55
2022-08-09T23:01:58.287Z,0.70
2022-08-09T23:04:32.547Z,0.68
2022-08-09T23:08:21.434Z,0.70
2022-08-09T23:10:11.902Z,0.80
2022-08-09T23:12:41.865Z,0.50
2022-08-09T23:15:14.620Z,0.70
2022-08-09T23:17:44.828Z,0.90
2022-08-09T23:20:14.862Z,0.60
2022-08-09T23:22:44.936Z,0.50
2022-08-09T23:25:15.165Z,0.50
2022-08-09T23:28:14.001Z,1.05
2022-08-09T23:30:38.721Z,0.65
2022-08-09T23:33:08.665Z,0.50
2022-08-09T23:36:04.697Z,0.50
2022-08-09T23:38:28.768Z,0.73
2022-08-09T23:40:58.776Z,0.85
2022-08-09T23:43:28.996Z,0.80
2022-08-09T23:46:01.733Z,1.10
2022-08-09T23:48:31.924Z,0.73
2022-08-09T23:51:02.138Z,0.73
2022-08-09T23:53:33.595Z,0.70
2022-08-09T23:56:09.082Z,0.80
2022-08-09T23:58:39.065Z,1.30
